This is the latest recevied weather packets stored in our database for station/object IT9GFD-13. If no packets are shown the sender has not sent any weather packets the latest 10 day(s).
| Time | Temp. | Humidity | Pressure | Rain* | Wind** | Luminosity | Snow |
|---|---|---|---|---|---|---|---|
| 1777831836 | 16.67° C | 73% | 1021.5 hPa | 0 mm | - | - | - |
| 1777830616 | 17.22° C | 72% | 1021.3 hPa | 0 mm | - | - | - |
| 1777828237 | 17.22° C | 72% | 1021 hPa | 0 mm | - | - | - |
| 1777824016 | 18.89° C | 65% | 1020.9 hPa | 0 mm | - | - | - |
| 1777822816 | 18.89° C | 63% | 1021 hPa | 0 mm | - | - | - |
| 1777821036 | 18.89° C | 65% | 1021 hPa | 0 mm | - | - | - |
| 1777818016 | 18.89° C | 67% | 1021.2 hPa | 0 mm | - | - | - |
| 1777811416 | 18.89° C | 66% | 1022 hPa | 0 mm | - | - | - |
| 1777810216 | 18.89° C | 66% | 1022.2 hPa | 0 mm | - | - | - |
| 1777806616 | 18.89° C | 64% | 1022 hPa | 0 mm | - | - | - |
| 1777805416 | 18.89° C | 66% | 1021.7 hPa | 0 mm | - | - | - |
| 1777804816 | 18.89° C | 66% | 1021.9 hPa | 0 mm | - | - | - |
| 1777803016 | 18.89° C | 66% | 1022.2 hPa | 0 mm | - | - | - |
| 1777797617 | 18.33° C | 64% | 1022.2 hPa | 0 mm | - | - | - |
| 1777795817 | 18.33° C | 63% | 1022.4 hPa | 0 mm | - | - | - |
| 1777791017 | 17.22° C | 63% | 1022.2 hPa | 0 mm | - | - | - |
| 1777789217 | 16.67° C | 63% | 1022.1 hPa | 0 mm | - | - | - |
| 1777784417 | 15.56° C | 68% | 1022 hPa | 0 mm | - | - | - |
| 1777783837 | 15° C | 70% | 1022 hPa | 0 mm | - | - | - |
| 1777782617 | 15° C | 69% | 1021.9 hPa | 0 mm | - | - | - |
| 1777782018 | 15° C | 69% | 1021.8 hPa | 0 mm | - | - | - |
| 1777780217 | 15° C | 70% | 1021.6 hPa | 0 mm | - | - | - |
| 1777767637 | 15° C | 65% | 1022.1 hPa | 0 mm | - | - | - |
| 1777766417 | 15° C | 65% | 1022.3 hPa | 0 mm | - | - | - |
| 1777765817 | 15° C | 65% | 1022.5 hPa | 0 mm | - | - | - |
* Rain latest hour (hover to see other rain measurements)
** Current wind speed in m/s (hover to see current wind gust speed)